Time;durP1;ratioP1;P1;durP2;ratioP2;P2;SDS_P1;SDS_P2;PMS_P1;PMS_P2;Temp;Humidity;BMP_temperature;BMP_pressure;BME280_temperature;BME280_humidity;BME280_pressure;Samples;Min_cycle;Max_cycle;Signal;HPM_P1;HPM_P2
2021/03/23 00:01:36;;;;;;;19.50;10.77;;;5.20;99.90;;;;;;4971716;28;20035;-94
2021/03/23 00:04:01;;;;;;;15.80;9.90;;;5.20;99.90;;;;;;4970432;28;20030;-96
2021/03/23 00:06:29;;;;;;;20.38;11.35;;;5.20;99.90;;;;;;4971256;28;20027;-93
2021/03/23 00:09:00;;;;;;;18.25;9.63;;;5.20;99.90;;;;;;4987313;28;20417;-95
2021/03/23 00:11:28;;;;;;;19.80;10.05;;;5.20;99.90;;;;;;4972293;28;20033;-94
2021/03/23 00:13:56;;;;;;;19.67;10.43;;;5.10;99.90;;;;;;4966963;28;20061;-94
2021/03/23 00:16:26;;;;;;;17.77;9.82;;;5.10;99.90;;;;;;4971546;28;20077;-93
2021/03/23 00:18:52;;;;;;;19.20;11.00;;;5.20;99.90;;;;;;4968312;28;20445;-95
2021/03/23 00:21:19;;;;;;;21.08;9.60;;;5.20;99.90;;;;;;4967774;28;20053;-94
2021/03/23 00:23:45;;;;;;;26.00;10.75;;;5.20;99.90;;;;;;4966377;28;20025;-95
2021/03/23 00:26:12;;;;;;;23.55;10.98;;;5.20;99.90;;;;;;4970330;28;20101;-95
2021/03/23 00:28:39;;;;;;;20.80;10.40;;;5.20;99.90;;;;;;4970481;28;20038;-95
2021/03/23 00:31:05;;;;;;;22.52;10.82;;;5.20;99.90;;;;;;4971956;28;20029;-94
2021/03/23 00:33:31;;;;;;;20.25;10.25;;;5.20;99.90;;;;;;4989389;28;20019;-94
2021/03/23 00:35:59;;;;;;;20.08;9.98;;;5.30;99.90;;;;;;4967082;28;20412;-94
2021/03/23 00:38:28;;;;;;;18.55;10.13;;;5.30;99.90;;;;;;4961114;28;20548;-93
2021/03/23 00:40:55;;;;;;;18.98;11.13;;;5.30;99.90;;;;;;4969261;28;20030;-93
2021/03/23 00:43:21;;;;;;;22.10;12.13;;;5.30;99.90;;;;;;4995124;28;20006;-91
2021/03/23 00:45:47;;;;;;;22.77;11.90;;;5.30;99.90;;;;;;4994259;28;20295;-92
2021/03/23 00:48:15;;;;;;;22.20;11.20;;;5.30;99.90;;;;;;5010995;28;20022;-91
2021/03/23 00:50:42;;;;;;;16.92;9.93;;;5.30;99.90;;;;;;4978099;28;20034;-85
2021/03/23 00:53:08;;;;;;;20.02;10.35;;;5.30;99.90;;;;;;4990634;28;20030;-93
2021/03/23 00:55:34;;;;;;;18.02;10.93;;;5.40;99.90;;;;;;4974578;28;20144;-93
2021/03/23 00:58:00;;;;;;;21.08;10.88;;;5.40;99.90;;;;;;4970337;28;20019;-92
2021/03/23 01:00:27;;;;;;;21.63;11.07;;;5.40;99.90;;;;;;4972781;28;20034;-93
2021/03/23 01:02:53;;;;;;;17.58;10.68;;;5.40;99.90;;;;;;4969760;28;20014;-92
2021/03/23 01:05:21;;;;;;;21.13;10.55;;;5.40;99.90;;;;;;4988803;28;20391;-93
2021/03/23 01:07:48;;;;;;;20.60;11.25;;;5.50;99.90;;;;;;4970415;28;20523;-95
2021/03/23 01:10:15;;;;;;;27.98;11.40;;;5.50;99.90;;;;;;4969737;28;20042;-94
2021/03/23 01:12:41;;;;;;;20.48;11.85;;;5.40;99.90;;;;;;4968401;28;20015;-96
2021/03/23 01:15:10;;;;;;;21.42;11.52;;;5.50;99.90;;;;;;4971251;28;20033;-95
2021/03/23 01:17:36;;;;;;;23.67;11.40;;;5.50;99.90;;;;;;4988100;28;20022;-94
2021/03/23 01:20:07;;;;;;;20.65;10.85;;;5.50;99.90;;;;;;4968818;28;20030;-95
2021/03/23 01:22:33;;;;;;;21.77;11.45;;;5.50;99.90;;;;;;4972356;28;20034;-94
2021/03/23 01:24:59;;;;;;;19.33;10.73;;;5.60;99.90;;;;;;4973435;28;20022;-94
2021/03/23 01:27:24;;;;;;;24.25;11.82;;;5.60;99.90;;;;;;4968944;28;20377;-94
2021/03/23 01:29:50;;;;;;;20.83;11.55;;;5.70;99.90;;;;;;4972205;28;20025;-94
2021/03/23 01:32:16;;;;;;;17.90;9.38;;;5.70;99.90;;;;;;4970880;28;20022;-95
2021/03/23 01:34:43;;;;;;;20.17;10.50;;;5.70;99.90;;;;;;4973573;28;20022;-92
2021/03/23 01:37:09;;;;;;;20.23;10.90;;;5.80;99.90;;;;;;4969488;28;20023;-93
2021/03/23 01:39:35;;;;;;;18.50;10.00;;;5.80;99.90;;;;;;4969157;28;20145;-94
2021/03/23 01:42:01;;;;;;;22.75;9.82;;;5.90;99.90;;;;;;4965578;28;20030;-95
2021/03/23 01:44:26;;;;;;;17.67;10.10;;;6.00;99.90;;;;;;4970621;28;20023;-96
2021/03/23 01:46:52;;;;;;;19.17;10.02;;;6.00;99.90;;;;;;4968734;28;20022;-93
2021/03/23 01:49:28;;;;;;;20.27;11.10;;;6.00;99.90;;;;;;4969877;28;20030;-94
2021/03/23 01:51:58;;;;;;;19.48;10.30;;;6.00;99.90;;;;;;4969445;28;20034;-94
2021/03/23 01:54:26;;;;;;;17.40;9.93;;;6.00;99.90;;;;;;4968091;28;20481;-93
2021/03/23 01:56:56;;;;;;;14.15;8.10;;;6.10;99.90;;;;;;4967697;28;20027;-95
2021/03/23 01:59:23;;;;;;;16.75;9.65;;;6.10;99.90;;;;;;4966936;28;20029;-94
2021/03/23 02:01:49;;;;;;;17.60;10.00;;;6.20;99.90;;;;;;4969021;28;20052;-94
2021/03/23 02:04:16;;;;;;;16.40;9.35;;;6.20;99.90;;;;;;4968373;28;20038;-95
2021/03/23 02:06:45;;;;;;;17.20;9.90;;;6.20;99.90;;;;;;4972333;28;20027;-94
2021/03/23 02:09:12;;;;;;;15.63;8.80;;;6.20;99.90;;;;;;4968893;28;20072;-94
2021/03/23 02:11:46;;;;;;;16.13;9.43;;;6.20;99.90;;;;;;4968055;28;20061;-95
2021/03/23 02:14:13;;;;;;;17.50;9.20;;;6.30;99.90;;;;;;4984954;28;20027;-94
2021/03/23 02:16:39;;;;;;;16.58;9.73;;;6.30;99.90;;;;;;4970163;28;20049;-93
2021/03/23 02:19:06;;;;;;;16.55;9.23;;;6.30;99.90;;;;;;4972630;28;20041;-93
2021/03/23 02:21:31;;;;;;;15.73;9.00;;;6.30;99.90;;;;;;4975076;28;20050;-94
2021/03/23 02:23:57;;;;;;;16.58;8.23;;;6.30;99.90;;;;;;4968963;28;20023;-94
2021/03/23 02:26:28;;;;;;;19.02;10.10;;;6.40;99.90;;;;;;4985617;28;20486;-94
2021/03/23 02:29:03;;;;;;;14.80;8.77;;;6.40;99.90;;;;;;4967749;28;20030;-95
2021/03/23 02:31:43;;;;;;;17.00;8.27;;;6.40;99.90;;;;;;4975571;28;20031;-94
2021/03/23 02:34:13;;;;;;;14.38;8.35;;;6.40;99.90;;;;;;4985294;28;20047;-95
2021/03/23 02:36:42;;;;;;;14.18;8.82;;;6.40;99.90;;;;;;4967305;28;20039;-92
2021/03/23 02:39:11;;;;;;;16.77;9.00;;;6.50;99.90;;;;;;4970433;28;20101;-93
2021/03/23 02:41:37;;;;;;;20.30;9.77;;;6.50;99.90;;;;;;4966412;28;20507;-95
2021/03/23 02:44:04;;;;;;;14.57;8.30;;;6.50;99.90;;;;;;4967107;28;20027;-96
2021/03/23 02:46:29;;;;;;;17.20;9.00;;;6.50;99.90;;;;;;4969048;28;20113;-96
2021/03/23 02:48:55;;;;;;;17.52;8.98;;;6.50;99.90;;;;;;4969825;28;20053;-94
2021/03/23 02:51:21;;;;;;;14.77;8.48;;;6.50;99.90;;;;;;4970224;28;20030;-94
2021/03/23 02:53:48;;;;;;;15.38;8.88;;;6.60;99.90;;;;;;4969045;28;20502;-92
2021/03/23 02:56:15;;;;;;;14.70;7.93;;;6.60;99.90;;;;;;4953277;28;20026;-93
2021/03/23 02:58:41;;;;;;;12.07;7.40;;;6.60;99.90;;;;;;4968983;28;20019;-93
2021/03/23 03:01:08;;;;;;;14.30;8.07;;;6.60;99.90;;;;;;4969356;28;20081;-95
2021/03/23 03:03:35;;;;;;;11.00;6.72;;;6.60;99.90;;;;;;4968200;28;20461;-96
2021/03/23 03:06:01;;;;;;;11.85;7.13;;;6.60;99.90;;;;;;4969879;28;20116;-93
2021/03/23 03:08:26;;;;;;;10.82;6.53;;;6.60;99.90;;;;;;4971300;28;20053;-95
2021/03/23 03:10:53;;;;;;;14.18;8.18;;;6.60;99.90;;;;;;4986209;28;20086;-94
2021/03/23 03:13:22;;;;;;;15.07;8.77;;;6.60;99.90;;;;;;4971065;28;20143;-92
2021/03/23 03:15:52;;;;;;;14.27;7.78;;;6.60;99.90;;;;;;4973038;28;20161;-94
2021/03/23 03:18:19;;;;;;;18.02;8.55;;;6.60;99.90;;;;;;4972192;28;20035;-92
2021/03/23 03:20:45;;;;;;;10.43;5.88;;;6.60;99.90;;;;;;4969602;28;20129;-95
2021/03/23 03:23:12;;;;;;;15.15;7.97;;;6.60;99.90;;;;;;4970845;28;20077;-94
2021/03/23 03:25:38;;;;;;;15.85;7.38;;;6.60;99.90;;;;;;4970479;28;20026;-95
2021/03/23 03:28:04;;;;;;;9.15;6.40;;;6.70;99.90;;;;;;4971608;28;20033;-94
2021/03/23 03:30:32;;;;;;;11.40;6.82;;;6.60;99.90;;;;;;4971413;28;20535;-95
2021/03/23 03:33:00;;;;;;;11.60;6.60;;;6.60;99.90;;;;;;4972320;28;20018;-91
2021/03/23 03:35:28;;;;;;;14.73;7.57;;;6.60;99.90;;;;;;4972916;28;20022;-96
2021/03/23 03:37:54;;;;;;;13.27;7.20;;;6.60;99.90;;;;;;4971523;28;20029;-96
2021/03/23 03:40:29;;;;;;;13.38;6.90;;;6.60;99.90;;;;;;4970260;28;20034;-96
2021/03/23 03:42:55;;;;;;;10.82;6.85;;;6.60;99.90;;;;;;4987353;28;20023;-94
2021/03/23 03:45:23;;;;;;;11.55;7.07;;;6.60;99.90;;;;;;4968966;28;20089;-96
2021/03/23 03:47:53;;;;;;;12.00;6.47;;;6.60;99.90;;;;;;4991129;28;20025;-95
2021/03/23 03:50:20;;;;;;;9.93;5.63;;;6.60;99.90;;;;;;4973680;28;20030;-94
2021/03/23 03:52:46;;;;;;;9.02;5.82;;;6.60;99.90;;;;;;4969678;28;20042;-94
2021/03/23 03:55:16;;;;;;;10.05;5.72;;;6.50;99.90;;;;;;4990539;28;20019;-94
2021/03/23 03:57:42;;;;;;;10.25;6.50;;;6.60;99.90;;;;;;4971418;28;20023;-93
2021/03/23 04:00:09;;;;;;;9.32;5.68;;;6.60;99.90;;;;;;4968940;28;20039;-95
2021/03/23 04:02:35;;;;;;;9.45;5.85;;;6.50;99.90;;;;;;4969434;28;20031;-94
2021/03/23 04:05:02;;;;;;;10.00;5.93;;;6.50;99.90;;;;;;4954915;28;20440;-94
2021/03/23 04:07:28;;;;;;;12.88;6.30;;;6.50;99.90;;;;;;4968623;28;20031;-95
2021/03/23 04:09:53;;;;;;;9.93;5.85;;;6.50;99.90;;;;;;4968755;28;20472;-94
2021/03/23 04:12:19;;;;;;;8.65;5.47;;;6.50;99.90;;;;;;4969660;28;20022;-94
2021/03/23 04:14:44;;;;;;;8.30;5.32;;;6.50;99.90;;;;;;4977621;28;20427;-95
2021/03/23 04:17:10;;;;;;;6.90;4.38;;;6.50;99.90;;;;;;4965912;28;20023;-94
2021/03/23 04:19:35;;;;;;;10.88;4.35;;;6.40;99.90;;;;;;4995248;28;20488;-94
2021/03/23 04:22:01;;;;;;;10.77;4.50;;;6.40;99.90;;;;;;4971880;28;20042;-93
2021/03/23 04:24:27;;;;;;;6.53;3.88;;;6.40;99.90;;;;;;4975485;28;20527;-94
2021/03/23 04:26:53;;;;;;;10.38;4.35;;;6.40;99.90;;;;;;4985556;28;20026;-93
2021/03/23 04:29:18;;;;;;;7.75;4.13;;;6.40;99.90;;;;;;4986478;28;20041;-88
2021/03/23 04:31:44;;;;;;;7.72;3.42;;;6.40;99.90;;;;;;4994203;28;20014;-87
2021/03/23 04:34:13;;;;;;;6.10;3.78;;;6.40;99.90;;;;;;4992951;28;20037;-89
2021/03/23 04:36:40;;;;;;;9.68;3.47;;;6.40;99.90;;;;;;4977144;28;20023;-95
2021/03/23 04:39:10;;;;;;;8.73;3.65;;;6.40;99.90;;;;;;4972353;28;20378;-93
2021/03/23 04:41:37;;;;;;;5.40;3.17;;;6.40;99.90;;;;;;4969932;28;20057;-95
2021/03/23 04:44:04;;;;;;;4.05;3.28;;;6.30;99.90;;;;;;4970604;28;20022;-94
2021/03/23 04:46:30;;;;;;;4.05;2.38;;;6.30;99.90;;;;;;4973546;28;20027;-94
2021/03/23 04:48:56;;;;;;;6.80;2.53;;;6.30;99.90;;;;;;4970086;28;20531;-92
2021/03/23 04:51:26;;;;;;;2.83;2.15;;;6.30;99.90;;;;;;4971541;28;20114;-93
2021/03/23 04:54:04;;;;;;;4.90;2.28;;;6.20;99.90;;;;;;4970120;28;20081;-94
2021/03/23 04:56:34;;;;;;;3.95;2.30;;;6.30;99.90;;;;;;4970530;28;20047;-93
2021/03/23 04:59:00;;;;;;;3.88;1.90;;;6.30;99.90;;;;;;4954140;28;20066;-95
2021/03/23 05:01:26;;;;;;;2.75;2.28;;;6.20;99.90;;;;;;4969598;28;20043;-93
2021/03/23 05:03:58;;;;;;;2.38;2.08;;;6.20;99.90;;;;;;4998303;28;20083;-94
2021/03/23 05:06:25;;;;;;;5.38;1.70;;;6.20;99.90;;;;;;4965553;28;20030;-92
2021/03/23 05:08:51;;;;;;;5.00;2.17;;;6.20;99.90;;;;;;4970328;28;20022;-95
2021/03/23 05:11:26;;;;;;;3.10;2.03;;;6.20;99.90;;;;;;4974267;28;20030;-95
2021/03/23 05:13:52;;;;;;;5.47;2.25;;;6.20;99.90;;;;;;4977890;28;20038;-95
2021/03/23 05:16:19;;;;;;;2.25;1.80;;;6.20;99.90;;;;;;4976711;28;20026;-93
2021/03/23 05:18:45;;;;;;;2.72;1.75;;;6.20;99.90;;;;;;4973322;28;20045;-95
2021/03/23 05:21:10;;;;;;;3.10;1.80;;;6.20;99.90;;;;;;4968927;28;20511;-94
2021/03/23 05:23:36;;;;;;;2.20;1.55;;;6.20;99.90;;;;;;4966527;28;20027;-95
2021/03/23 05:26:03;;;;;;;2.85;1.40;;;6.20;99.90;;;;;;4967362;28;20068;-95
2021/03/23 05:28:29;;;;;;;3.42;1.67;;;6.20;99.90;;;;;;4964150;28;20031;-92
2021/03/23 05:30:56;;;;;;;3.08;1.60;;;6.20;99.90;;;;;;4964234;28;20033;-95
2021/03/23 05:33:23;;;;;;;2.20;1.42;;;6.20;99.90;;;;;;4966705;28;20042;-95
2021/03/23 05:35:51;;;;;;;1.65;0.90;;;6.20;99.90;;;;;;4983429;28;20031;-94
2021/03/23 05:38:18;;;;;;;3.53;1.73;;;6.20;99.90;;;;;;4986660;28;20007;-95
2021/03/23 05:40:50;;;;;;;2.72;1.77;;;6.20;99.90;;;;;;4992717;28;20042;-92
2021/03/23 05:43:28;;;;;;;4.70;1.67;;;6.20;99.90;;;;;;4986989;28;20039;-92
2021/03/23 05:45:59;;;;;;;2.80;1.67;;;6.20;99.90;;;;;;4986953;28;20012;-94
2021/03/23 05:48:32;;;;;;;2.53;1.40;;;6.20;99.90;;;;;;4987159;28;20012;-94
2021/03/23 05:51:07;;;;;;;2.40;1.60;;;6.20;99.90;;;;;;4970266;28;20042;-95
2021/03/23 05:53:56;;;;;;;2.10;1.70;;;6.20;99.90;;;;;;4966543;28;20022;-95
2021/03/23 05:56:22;;;;;;;4.82;1.70;;;6.20;99.90;;;;;;4968714;28;20487;-94
2021/03/23 05:58:51;;;;;;;3.25;1.90;;;6.20;99.90;;;;;;4949492;28;20098;-94
2021/03/23 06:01:32;;;;;;;5.15;2.22;;;6.10;99.90;;;;;;4967260;28;20042;-94
2021/03/23 06:04:17;;;;;;;;;;;6.10;99.90;;;;;;4967428;28;20473;-94
2021/03/23 06:06:49;;;;;;;7.22;2.45;;;6.10;99.90;;;;;;4966770;28;19907;-92
2021/03/23 06:09:16;;;;;;;5.75;2.75;;;6.10;99.90;;;;;;4964840;28;20121;-93
2021/03/23 06:11:42;;;;;;;5.22;2.90;;;6.10;99.90;;;;;;4948333;28;20034;-93
2021/03/23 06:14:25;;;;;;;7.18;3.10;;;6.10;99.90;;;;;;4972547;28;20641;-93
2021/03/23 06:17:11;;;;;;;6.60;3.70;;;6.20;99.90;;;;;;4964080;28;20023;-92
2021/03/23 06:19:42;;;;;;;4.72;3.35;;;6.20;99.90;;;;;;4958972;28;20031;-94
2021/03/23 06:22:20;;;;;;;5.25;3.40;;;6.20;99.90;;;;;;4977388;28;20046;-94
2021/03/23 06:25:22;;;;;;;5.63;3.85;;;6.20;99.90;;;;;;4968385;28;20070;-94
2021/03/23 06:27:55;;;;;;;6.60;3.72;;;6.20;99.90;;;;;;4964270;28;20117;-95
2021/03/23 06:30:41;;;;;;;9.00;3.88;;;6.20;99.90;;;;;;4963059;28;20039;-91
2021/03/23 06:33:13;;;;;;;6.40;3.47;;;6.20;99.90;;;;;;4958393;28;20023;-93
2021/03/23 06:35:43;;;;;;;8.35;4.60;;;6.20;99.90;;;;;;4963551;28;20074;-94
2021/03/23 06:38:40;;;;;;;10.90;5.35;;;6.20;99.90;;;;;;4964532;28;20028;-94
2021/03/23 06:41:11;;;;;;;10.57;4.38;;;6.20;99.90;;;;;;4951866;28;20523;-93
2021/03/23 06:43:38;;;;;;;7.93;4.78;;;6.20;99.90;;;;;;4973394;28;20035;-91
2021/03/23 06:46:30;;;;;;;7.07;4.32;;;6.20;99.90;;;;;;4972850;28;20038;-94
2021/03/23 06:49:04;;;;;;;9.73;3.97;;;6.20;99.90;;;;;;4968722;28;20113;-94
2021/03/23 06:51:30;;;;;;;8.63;3.80;;;6.20;99.90;;;;;;4970958;28;20038;-96
2021/03/23 06:54:20;;;;;;;7.95;3.85;;;6.20;99.90;;;;;;4970312;28;20027;-93
2021/03/23 06:56:58;;;;;;;10.48;4.53;;;6.20;99.90;;;;;;4964623;28;20102;-94
2021/03/23 06:59:23;;;;;;;9.25;4.28;;;6.30;99.90;;;;;;4967664;28;20043;-94
2021/03/23 07:02:00;;;;;;;11.68;4.10;;;6.30;99.90;;;;;;4971760;28;20030;-95
2021/03/23 07:04:34;;;;;;;7.80;4.65;;;6.30;99.90;;;;;;4965282;28;20023;-92
2021/03/23 07:07:14;;;;;;;8.18;3.50;;;6.30;99.90;;;;;;4968004;28;20042;-93
2021/03/23 07:09:58;;;;;;;8.27;4.15;;;6.30;99.90;;;;;;4970907;28;20027;-93
2021/03/23 07:12:36;;;;;;;8.23;3.50;;;6.30;99.90;;;;;;4968020;28;20056;-94
2021/03/23 07:15:20;;;;;;;5.57;3.28;;;6.30;99.90;;;;;;4970948;28;20023;-95
2021/03/23 07:17:49;;;;;;;6.85;3.38;;;6.40;99.90;;;;;;4961870;28;20421;-94
2021/03/23 07:20:40;;;;;;;5.13;3.78;;;6.40;99.90;;;;;;4968065;28;20137;-95
2021/03/23 07:23:40;;;;;;;5.63;3.78;;;6.40;99.90;;;;;;4964982;28;20035;-95
2021/03/23 07:26:23;;;;;;;6.35;3.75;;;6.30;99.90;;;;;;4964853;28;20118;-93
2021/03/23 07:28:49;;;;;;;7.55;3.50;;;6.40;99.90;;;;;;4970679;28;20022;-92
2021/03/23 07:31:34;;;;;;;5.47;3.00;;;6.40;99.90;;;;;;4971956;28;20045;-94
2021/03/23 07:34:04;;;;;;;5.55;2.70;;;6.40;99.90;;;;;;4968374;28;20030;-94
2021/03/23 07:37:01;;;;;;;4.60;3.23;;;6.50;99.90;;;;;;4969149;28;20034;-93
2021/03/23 07:39:37;;;;;;;4.30;2.05;;;6.40;99.90;;;;;;4963785;28;20053;-94
2021/03/23 07:42:35;;;;;;;6.22;3.10;;;6.50;99.90;;;;;;4963576;28;20111;-95
2021/03/23 07:45:27;;;;;;;4.88;2.90;;;6.50;99.90;;;;;;4966768;28;20114;-94
2021/03/23 07:48:03;;;;;;;5.82;3.22;;;6.50;99.90;;;;;;4969050;28;20027;-94
2021/03/23 07:50:34;;;;;;;4.85;3.00;;;6.50;99.90;;;;;;4964352;28;20039;-94
2021/03/23 07:53:22;;;;;;;4.57;2.67;;;6.60;99.90;;;;;;4967256;28;20027;-94
2021/03/23 07:55:50;;;;;;;5.15;3.03;;;6.60;99.90;;;;;;4968690;28;20034;-94
2021/03/23 07:58:40;;;;;;;5.78;1.92;;;6.60;99.90;;;;;;4963183;28;20190;-94
2021/03/23 08:01:23;;;;;;;5.60;2.50;;;6.70;99.90;;;;;;4969753;28;20043;-95
2021/03/23 08:04:06;;;;;;;4.90;2.65;;;6.70;99.90;;;;;;4975829;28;20258;-91
2021/03/23 08:07:18;;;;;;;6.85;2.60;;;6.70;99.90;;;;;;4985689;28;20062;-93
2021/03/23 08:10:04;;;;;;;5.00;2.60;;;6.70;99.90;;;;;;4908357;29;20064;-93
2021/03/23 08:12:49;;;;;;;5.70;2.75;;;6.80;99.90;;;;;;4889788;29;20044;-94
2021/03/23 08:15:26;;;;;;;6.60;2.80;;;6.80;99.90;;;;;;4898768;29;20045;-95
2021/03/23 08:18:14;;;;;;;5.30;2.38;;;6.90;99.90;;;;;;4892593;29;20036;-94
2021/03/23 08:20:59;;;;;;;8.80;2.65;;;6.90;99.90;;;;;;4888284;29;20044;-93
2021/03/23 08:23:31;;;;;;;7.45;3.10;;;6.90;99.90;;;;;;4909955;29;20053;-95
2021/03/23 08:26:34;;;;;;;6.30;2.63;;;7.00;99.90;;;;;;4898921;29;20033;-93
2021/03/23 08:29:21;;;;;;;6.07;3.10;;;7.00;99.90;;;;;;4885819;29;20040;-94
2021/03/23 08:32:08;;;;;;;6.63;3.00;;;7.00;99.90;;;;;;4900670;29;20036;-95
2021/03/23 08:34:53;;;;;;;6.85;3.50;;;7.10;99.90;;;;;;4884663;29;20554;-92
2021/03/23 08:37:37;;;;;;;4.85;2.85;;;7.10;99.90;;;;;;4884517;29;20077;-92
2021/03/23 08:40:05;;;;;;;5.65;3.15;;;7.10;99.90;;;;;;4905463;29;20066;-92
2021/03/23 08:42:32;;;;;;;7.63;3.60;;;7.10;99.90;;;;;;4958052;29;20024;-92
2021/03/23 08:44:59;;;;;;;4.50;2.67;;;7.20;99.90;;;;;;4957405;29;20110;-91
2021/03/23 08:47:45;;;;;;;5.88;3.10;;;7.20;99.60;;;;;;4960385;29;20019;-93
2021/03/23 08:50:26;;;;;;;7.75;3.33;;;7.20;99.20;;;;;;4950911;29;20039;-95
2021/03/23 08:52:56;;;;;;;;;;;7.20;99.10;;;;;;4967683;28;20050;-92
2021/03/23 08:55:28;;;;;;;6.03;3.70;;;7.30;99.20;;;;;;4960789;28;19917;-92
2021/03/23 08:57:59;;;;;;;6.50;3.65;;;7.30;99.10;;;;;;4976412;28;20019;-93
2021/03/23 09:00:37;;;;;;;9.13;3.97;;;7.30;99.10;;;;;;4975598;28;20049;-93
2021/03/23 09:03:11;;;;;;;8.10;4.50;;;7.40;98.80;;;;;;4975576;28;20030;-93
2021/03/23 09:06:03;;;;;;;6.28;3.95;;;7.40;98.50;;;;;;4976096;28;20062;-92
2021/03/23 09:09:07;;;;;;;7.90;4.50;;;7.50;98.50;;;;;;4976160;28;20110;-93
2021/03/23 09:11:38;;;;;;;8.50;4.05;;;7.50;98.10;;;;;;4976470;28;20033;-93
2021/03/23 09:14:08;;;;;;;9.52;3.75;;;7.50;98.20;;;;;;4976132;28;20030;-92
2021/03/23 09:16:53;;;;;;;6.18;3.10;;;7.60;98.00;;;;;;4976002;28;20030;-93
2021/03/23 09:19:40;;;;;;;8.82;4.10;;;7.60;97.70;;;;;;4975175;28;20038;-92
2021/03/23 09:22:07;;;;;;;5.32;3.58;;;7.70;97.70;;;;;;4977675;28;20470;-93
2021/03/23 09:24:34;;;;;;;12.05;4.38;;;7.70;97.60;;;;;;4976626;28;20030;-92
2021/03/23 09:27:01;;;;;;;7.63;3.65;;;7.70;97.80;;;;;;4974884;28;20034;-93
2021/03/23 09:29:43;;;;;;;6.95;3.72;;;7.80;97.50;;;;;;4975169;28;20027;-93
2021/03/23 09:32:16;;;;;;;6.63;3.17;;;7.80;97.50;;;;;;4975393;28;20548;-93
2021/03/23 09:35:05;;;;;;;4.82;3.25;;;7.90;97.00;;;;;;4974863;28;20033;-93
2021/03/23 09:37:46;;;;;;;6.18;3.20;;;7.90;97.00;;;;;;4974753;28;20027;-93
2021/03/23 09:40:18;;;;;;;;;;;8.00;97.00;;;;;;4975313;28;20125;-93
2021/03/23 09:42:51;;;;;;;6.88;3.40;;;8.00;97.00;;;;;;4977866;28;19910;-93
2021/03/23 09:45:34;;;;;;;6.65;3.50;;;8.00;96.90;;;;;;4975557;28;20027;-94
2021/03/23 09:48:24;;;;;;;5.53;3.03;;;8.10;96.80;;;;;;4974137;28;20031;-92
2021/03/23 09:50:53;;;;;;;5.28;3.08;;;8.10;96.50;;;;;;4973474;28;20495;-93
2021/03/23 09:53:41;;;;;;;10.30;3.42;;;8.20;96.40;;;;;;4974486;28;20023;-93
2021/03/23 09:56:10;;;;;;;6.93;3.15;;;8.20;96.10;;;;;;4974863;28;20113;-94
2021/03/23 09:58:37;;;;;;;7.90;3.03;;;8.20;95.80;;;;;;4975487;28;20027;-92
2021/03/23 10:01:21;;;;;;;6.50;3.05;;;8.20;95.60;;;;;;4974881;28;20484;-92
2021/03/23 10:03:50;;;;;;;5.80;2.78;;;8.30;95.60;;;;;;4976808;28;20065;-91
2021/03/23 10:06:21;;;;;;;5.47;2.95;;;8.40;95.40;;;;;;4975036;28;20023;-95
2021/03/23 10:08:53;;;;;;;5.03;2.72;;;8.40;95.00;;;;;;4974591;28;20038;-93
2021/03/23 10:11:23;;;;;;;11.55;4.47;;;8.40;94.50;;;;;;4975108;28;20093;-93
2021/03/23 10:13:58;;;;;;;8.00;3.67;;;8.40;94.50;;;;;;4974539;28;20050;-94
2021/03/23 10:16:30;;;;;;;8.70;3.83;;;8.40;94.30;;;;;;4975711;28;20034;-92
2021/03/23 10:19:07;;;;;;;10.20;4.53;;;8.50;94.30;;;;;;4971536;28;20023;-92
2021/03/23 10:21:36;;;;;;;10.65;4.07;;;8.50;94.50;;;;;;4972552;28;20039;-95
2021/03/23 10:24:13;;;;;;;12.02;4.60;;;8.50;94.20;;;;;;4973713;28;20019;-92
2021/03/23 10:26:43;;;;;;;6.90;3.08;;;8.60;94.40;;;;;;4973904;28;20085;-93
2021/03/23 10:29:10;;;;;;;;;;;8.60;94.30;;;;;;4990347;28;20042;-92
2021/03/23 10:31:41;;;;;;;14.98;5.28;;;8.60;94.10;;;;;;4995974;28;19898;-90
2021/03/23 10:34:20;;;;;;;10.10;5.22;;;8.60;94.20;;;;;;4978737;28;20031;-93
2021/03/23 10:36:57;;;;;;;10.25;5.13;;;8.70;94.20;;;;;;4973006;28;20081;-94
2021/03/23 10:39:41;;;;;;;10.70;4.07;;;8.70;94.00;;;;;;4973537;28;20039;-92
2021/03/23 10:42:24;;;;;;;17.13;6.40;;;8.70;93.90;;;;;;4974420;28;20019;-92
2021/03/23 10:44:52;;;;;;;9.18;5.07;;;8.70;93.50;;;;;;4972448;28;20034;-92
2021/03/23 10:47:38;;;;;;;9.98;4.45;;;8.70;93.40;;;;;;4972449;28;20023;-94
2021/03/23 10:50:21;;;;;;;9.55;4.32;;;8.60;93.30;;;;;;4974643;28;20412;-93
2021/03/23 10:52:48;;;;;;;9.13;4.97;;;8.60;93.30;;;;;;4972294;28;20026;-95
2021/03/23 10:55:27;;;;;;;14.02;4.97;;;8.60;93.20;;;;;;4973434;28;20030;-93
2021/03/23 10:58:16;;;;;;;10.43;4.82;;;8.60;93.40;;;;;;4981379;28;20022;-93
2021/03/23 11:00:42;;;;;;;6.22;3.60;;;8.60;93.50;;;;;;4980601;28;20047;-93
2021/03/23 11:03:24;;;;;;;8.95;5.70;;;8.60;93.30;;;;;;4980284;28;20038;-93
2021/03/23 11:05:51;;;;;;;10.30;5.47;;;8.70;93.10;;;;;;4978790;28;20058;-92
2021/03/23 11:08:17;;;;;;;9.65;4.90;;;8.70;93.00;;;;;;4976376;28;20025;-93
2021/03/23 11:10:44;;;;;;;9.43;5.68;;;8.60;93.10;;;;;;4976097;28;20023;-93
2021/03/23 11:13:11;;;;;;;10.63;6.50;;;8.70;93.30;;;;;;4975091;28;20019;-94
2021/03/23 11:15:41;;;;;;;10.07;5.93;;;8.70;93.30;;;;;;4975643;28;20117;-92
2021/03/23 11:18:19;;;;;;;15.43;5.55;;;8.70;93.50;;;;;;4976001;28;20034;-92
2021/03/23 11:20:46;;;;;;;12.13;5.30;;;8.70;93.30;;;;;;4974928;28;20046;-94
2021/03/23 11:23:41;;;;;;;9.90;4.85;;;8.70;93.30;;;;;;4977651;28;20031;-93
2021/03/23 11:26:11;;;;;;;12.10;6.05;;;8.70;93.20;;;;;;4979015;28;20030;-93
2021/03/23 11:28:37;;;;;;;13.70;6.03;;;8.70;93.30;;;;;;4982606;28;20038;-93
2021/03/23 11:31:05;;;;;;;8.77;5.40;;;8.70;93.50;;;;;;4980445;28;20302;-93
2021/03/23 11:33:32;;;;;;;9.60;6.15;;;8.80;93.60;;;;;;4985078;28;20023;-94
2021/03/23 11:35:59;;;;;;;9.70;5.35;;;8.80;93.60;;;;;;4996272;28;20035;-92
2021/03/23 11:38:25;;;;;;;10.98;6.40;;;8.80;93.50;;;;;;4998806;28;20019;-92
2021/03/23 11:40:54;;;;;;;14.80;6.32;;;8.80;93.60;;;;;;5001263;28;20046;-94
2021/03/23 11:43:31;;;;;;;12.15;6.43;;;8.80;93.80;;;;;;5000992;28;20099;-93
2021/03/23 11:46:04;;;;;;;12.93;6.35;;;8.70;93.70;;;;;;4986422;28;20037;-93
2021/03/23 11:48:36;;;;;;;13.35;6.25;;;8.80;93.80;;;;;;4982087;28;20048;-94
2021/03/23 11:51:03;;;;;;;11.77;6.28;;;8.80;93.80;;;;;;4980671;28;20031;-94
2021/03/23 11:53:28;;;;;;;11.95;6.60;;;8.80;93.60;;;;;;4979862;28;20034;-94
2021/03/23 11:55:54;;;;;;;11.48;6.65;;;8.90;93.60;;;;;;4978456;28;20019;-95
2021/03/23 11:58:21;;;;;;;12.52;7.03;;;8.90;93.60;;;;;;4978261;28;20432;-92
2021/03/23 12:00:46;;;;;;;16.08;6.30;;;9.00;93.90;;;;;;4978857;28;20551;-93
2021/03/23 12:03:14;;;;;;;8.88;5.00;;;9.10;93.90;;;;;;4978238;28;20069;-93
2021/03/23 12:05:41;;;;;;;12.73;6.20;;;9.10;93.20;;;;;;4975492;28;20050;-94
2021/03/23 12:08:27;;;;;;;11.23;6.93;;;9.20;93.20;;;;;;4980307;28;20034;-94
2021/03/23 12:10:59;;;;;;;12.60;6.50;;;9.20;93.30;;;;;;4978118;28;20083;-94
2021/03/23 12:13:45;;;;;;;12.35;6.65;;;9.30;93.40;;;;;;4977661;28;20023;-94
2021/03/23 12:16:31;;;;;;;28.05;8.10;;;9.40;93.20;;;;;;4978599;28;20042;-93
2021/03/23 12:19:03;;;;;;;12.93;7.25;;;9.40;92.80;;;;;;4966589;28;20022;-93
2021/03/23 12:21:29;;;;;;;11.43;6.90;;;9.50;92.90;;;;;;4976094;28;20061;-94
2021/03/23 12:23:55;;;;;;;12.63;6.95;;;9.60;93.00;;;;;;4976933;28;20030;-93
2021/03/23 12:26:21;;;;;;;11.05;6.70;;;9.70;92.90;;;;;;4977266;28;20069;-94
2021/03/23 12:28:47;;;;;;;10.75;6.65;;;9.90;92.80;;;;;;4977328;28;20025;-93
2021/03/23 12:31:13;;;;;;;16.10;6.85;;;10.00;91.90;;;;;;4977546;28;20043;-93
2021/03/23 12:33:40;;;;;;;12.05;6.68;;;10.00;91.40;;;;;;4974842;28;20518;-95
2021/03/23 12:36:07;;;;;;;10.00;4.75;;;10.00;91.50;;;;;;4955772;28;20399;-93
2021/03/23 12:38:35;;;;;;;14.05;6.93;;;10.00;91.50;;;;;;4968159;28;20028;-94
2021/03/23 12:41:02;;;;;;;12.20;6.93;;;10.00;91.30;;;;;;4968673;28;20077;-92
2021/03/23 12:43:28;;;;;;;14.77;6.80;;;10.10;91.10;;;;;;4968614;28;20027;-94
2021/03/23 12:45:56;;;;;;;13.05;7.25;;;10.20;91.00;;;;;;4968129;28;20515;-93
2021/03/23 12:48:23;;;;;;;9.65;6.10;;;10.30;90.70;;;;;;4966692;28;20034;-94
2021/03/23 12:50:51;;;;;;;12.65;7.22;;;10.40;90.40;;;;;;4964356;28;20023;-93
2021/03/23 12:53:18;;;;;;;12.57;6.95;;;10.50;90.40;;;;;;4964346;28;20027;-94
2021/03/23 12:55:54;;;;;;;13.05;7.78;;;10.50;90.40;;;;;;4967757;28;20082;-94
2021/03/23 12:58:30;;;;;;;11.05;5.45;;;10.60;90.20;;;;;;4967774;28;20031;-93
2021/03/23 13:00:56;;;;;;;10.75;6.28;;;10.70;90.10;;;;;;4955917;28;20035;-94
2021/03/23 13:03:21;;;;;;;11.18;5.90;;;10.70;90.00;;;;;;4939926;29;20034;-93
2021/03/23 13:05:52;;;;;;;9.48;5.63;;;10.70;88.80;;;;;;4958309;28;20499;-94
2021/03/23 13:08:21;;;;;;;14.73;7.35;;;10.60;88.60;;;;;;4964309;28;20088;-93
2021/03/23 13:10:53;;;;;;;11.02;6.15;;;10.60;88.90;;;;;;4971163;28;20034;-95
2021/03/23 13:13:32;;;;;;;13.63;7.15;;;10.50;89.30;;;;;;4974968;28;20034;-94
2021/03/23 13:15:58;;;;;;;14.27;7.28;;;10.60;89.80;;;;;;4975773;28;20035;-95